createdAt,value
2019-05-21T00:00:31.957Z,100.00
2019-05-21T00:03:03.900Z,100.00
2019-05-21T00:05:35.887Z,100.00
2019-05-21T00:08:07.845Z,100.00
2019-05-21T00:10:39.692Z,100.00
2019-05-21T00:13:10.972Z,100.00
2019-05-21T00:15:42.769Z,100.00
2019-05-21T00:18:15.612Z,100.00
2019-05-21T00:20:47.527Z,100.00
2019-05-21T00:23:19.387Z,100.00
2019-05-21T00:25:51.427Z,100.00
2019-05-21T00:28:38.590Z,100.00
2019-05-21T00:32:03.776Z,100.00
2019-05-21T00:35:30.259Z,100.00
2019-05-21T00:38:54.934Z,100.00
2019-05-21T00:42:05.385Z,100.00
2019-05-21T00:44:43.708Z,100.00
2019-05-21T00:47:25.246Z,100.00
2019-05-21T00:49:56.798Z,100.00
2019-05-21T00:52:28.632Z,100.00
2019-05-21T00:55:00.512Z,100.00
2019-05-21T00:57:32.463Z,100.00
2019-05-21T01:00:06.722Z,100.00
2019-05-21T01:02:38.960Z,100.00
2019-05-21T01:05:12.667Z,100.00
2019-05-21T01:07:44.851Z,100.00
2019-05-21T01:10:16.803Z,100.00
2019-05-21T01:12:48.664Z,100.00
2019-05-21T01:15:20.666Z,100.00
2019-05-21T01:17:52.541Z,100.00
2019-05-21T01:20:26.722Z,100.00
2019-05-21T01:22:58.737Z,100.00
2019-05-21T01:25:29.927Z,100.00
2019-05-21T01:28:01.700Z,100.00
2019-05-21T01:30:36.385Z,100.00
2019-05-21T01:33:09.768Z,100.00
2019-05-21T01:35:40.967Z,100.00
2019-05-21T01:38:12.866Z,100.00
2019-05-21T01:40:44.132Z,100.00
2019-05-21T01:43:15.943Z,100.00
2019-05-21T01:45:47.855Z,100.00
2019-05-21T01:48:21.606Z,100.00
2019-05-21T01:50:56.417Z,100.00
2019-05-21T01:53:31.556Z,100.00
2019-05-21T01:56:13.845Z,100.00
2019-05-21T01:58:45.075Z,100.00
2019-05-21T02:01:19.614Z,100.00
2019-05-21T02:03:52.705Z,100.00
2019-05-21T02:06:25.198Z,100.00
2019-05-21T02:08:57.162Z,100.00
2019-05-21T02:11:31.472Z,100.00
2019-05-21T02:14:03.656Z,100.00
2019-05-21T02:16:38.648Z,100.00
2019-05-21T02:19:12.165Z,100.00
2019-05-21T02:21:44.172Z,100.00
2019-05-21T02:24:17.142Z,100.00
2019-05-21T02:26:50.009Z,100.00
2019-05-21T02:29:23.363Z,100.00
2019-05-21T02:31:54.573Z,100.00
2019-05-21T02:34:27.744Z,100.00
2019-05-21T02:36:59.871Z,100.00
2019-05-21T02:39:33.041Z,100.00
2019-05-21T02:42:04.919Z,100.00
2019-05-21T02:44:36.727Z,100.00
2019-05-21T02:47:12.884Z,100.00
2019-05-21T02:49:44.208Z,100.00
2019-05-21T02:52:15.375Z,100.00
2019-05-21T02:54:46.579Z,100.00
2019-05-21T02:57:23.690Z,100.00
2019-05-21T03:00:00.956Z,100.00
2019-05-21T03:02:40.435Z,100.00
2019-05-21T03:05:15.324Z,100.00
2019-05-21T03:07:47.228Z,100.00
2019-05-21T03:10:18.557Z,100.00
2019-05-21T03:12:50.355Z,100.00
2019-05-21T03:15:23.353Z,100.00
2019-05-21T03:17:55.545Z,100.00
2019-05-21T03:20:32.578Z,100.00
2019-05-21T03:23:07.415Z,100.00
2019-05-21T03:25:41.842Z,100.00
2019-05-21T03:28:13.814Z,100.00
2019-05-21T03:30:51.576Z,100.00
2019-05-21T03:33:26.202Z,100.00
2019-05-21T03:35:58.236Z,100.00
2019-05-21T03:38:30.369Z,100.00
2019-05-21T03:41:03.263Z,100.00
2019-05-21T03:43:36.164Z,100.00
2019-05-21T03:46:08.053Z,100.00
2019-05-21T03:48:39.899Z,100.00
2019-05-21T03:51:11.166Z,100.00
2019-05-21T03:53:42.322Z,100.00
2019-05-21T03:56:14.094Z,100.00
2019-05-21T03:58:46.009Z,100.00
2019-05-21T04:01:24.222Z,100.00
2019-05-21T04:03:56.127Z,100.00
2019-05-21T04:06:30.949Z,100.00
2019-05-21T04:09:02.673Z,100.00
2019-05-21T04:11:34.583Z,100.00
2019-05-21T04:14:06.590Z,100.00
2019-05-21T04:16:46.179Z,100.00
2019-05-21T04:19:26.195Z,100.00
2019-05-21T04:21:58.045Z,100.00
2019-05-21T04:24:29.905Z,100.00
2019-05-21T04:27:01.743Z,100.00
2019-05-21T04:29:33.736Z,100.00
2019-05-21T04:32:05.597Z,100.00
2019-05-21T04:34:36.796Z,100.00
2019-05-21T04:37:11.339Z,100.00
2019-05-21T04:39:41.461Z,100.00
2019-05-21T04:42:13.666Z,100.00
2019-05-21T04:44:45.504Z,100.00
2019-05-21T04:47:17.395Z,100.00
2019-05-21T04:49:49.239Z,100.00
2019-05-21T04:52:21.197Z,100.00
2019-05-21T04:54:53.123Z,100.00
2019-05-21T04:57:25.055Z,100.00
2019-05-21T04:59:56.950Z,100.00
2019-05-21T05:02:28.870Z,100.00
2019-05-21T05:05:00.738Z,100.00
2019-05-21T05:07:32.644Z,100.00
2019-05-21T05:10:05.105Z,100.00
2019-05-21T05:12:37.022Z,100.00
2019-05-21T05:15:10.661Z,100.00
2019-05-21T05:17:42.617Z,100.00
2019-05-21T05:20:15.864Z,100.00
2019-05-21T05:22:47.807Z,100.00
2019-05-21T05:25:22.397Z,100.00
2019-05-21T05:27:54.316Z,100.00
2019-05-21T05:30:26.181Z,100.00
2019-05-21T05:32:57.403Z,100.00
2019-05-21T05:35:29.243Z,100.00
2019-05-21T05:38:01.205Z,100.00
2019-05-21T05:40:33.033Z,100.00
2019-05-21T05:43:05.082Z,100.00
2019-05-21T05:45:37.003Z,100.00
2019-05-21T05:48:08.226Z,100.00
2019-05-21T05:50:42.625Z,100.00
2019-05-21T05:53:13.808Z,100.00
2019-05-21T05:55:46.577Z,94.90
2019-05-21T05:58:18.449Z,94.76
2019-05-21T06:00:49.736Z,96.19
2019-05-21T06:03:20.894Z,98.01
2019-05-21T06:05:52.695Z,99.46
2019-05-21T06:08:24.517Z,99.22
2019-05-21T06:10:56.379Z,99.38
2019-05-21T06:13:28.195Z,97.19
2019-05-21T06:16:00.026Z,94.56
2019-05-21T06:18:35.395Z,95.59
2019-05-21T06:21:06.655Z,92.83
2019-05-21T06:23:38.496Z,92.63
2019-05-21T06:26:10.375Z,88.61
2019-05-21T06:28:42.259Z,86.85
2019-05-21T06:31:14.096Z,88.88
2019-05-21T06:33:45.860Z,90.76
2019-05-21T06:36:17.737Z,91.65
2019-05-21T06:38:49.599Z,91.51
2019-05-21T06:41:21.440Z,91.55
2019-05-21T06:43:53.380Z,91.97
2019-05-21T06:46:25.211Z,91.70
2019-05-21T06:48:57.143Z,91.33
2019-05-21T06:51:29.065Z,91.08
2019-05-21T06:54:00.905Z,90.17
2019-05-21T06:56:32.140Z,89.12
2019-05-21T06:59:05.566Z,87.73
2019-05-21T07:01:36.785Z,87.86
2019-05-21T07:04:08.643Z,86.87
2019-05-21T07:06:40.459Z,83.17
2019-05-21T07:09:12.375Z,83.32
2019-05-21T07:11:44.256Z,82.42
2019-05-21T07:14:15.460Z,81.72
2019-05-21T07:16:47.292Z,82.63
2019-05-21T07:19:18.500Z,84.53
2019-05-21T07:21:50.300Z,84.65
2019-05-21T07:24:22.171Z,83.54
2019-05-21T07:26:54.055Z,84.26
2019-05-21T07:29:27.024Z,78.33
2019-05-21T07:31:58.844Z,81.78
2019-05-21T07:34:31.630Z,81.57
2019-05-21T07:37:03.537Z,82.27
2019-05-21T07:39:35.350Z,81.76
2019-05-21T07:42:07.248Z,82.24
2019-05-21T07:44:39.046Z,79.53
2019-05-21T07:47:10.958Z,80.90
2019-05-21T07:49:42.820Z,77.49
2019-05-21T07:52:14.107Z,80.22
2019-05-21T07:54:45.956Z,80.58
2019-05-21T10:07:11.813Z,49.07
2019-05-21T10:09:46.324Z,48.49
2019-05-21T10:12:18.376Z,49.18
2019-05-21T10:14:51.030Z,47.75
2019-05-21T10:17:22.958Z,44.83
2019-05-21T10:19:54.767Z,44.47
2019-05-21T10:22:26.641Z,42.49
2019-05-21T10:24:58.583Z,41.40
2019-05-21T10:27:30.571Z,40.79
2019-05-21T10:30:02.402Z,40.78
2019-05-21T10:32:34.418Z,41.92
2019-05-21T10:35:06.922Z,40.97
2019-05-21T10:37:52.600Z,43.07
2019-05-21T10:40:13.004Z,43.35
2019-05-21T10:42:44.858Z,40.39
2019-05-21T10:45:16.955Z,42.38
2019-05-21T10:47:48.913Z,41.15
2019-05-21T10:50:21.140Z,39.63
2019-05-21T10:52:53.200Z,39.54
2019-05-21T10:55:26.155Z,39.33
2019-05-21T10:57:58.001Z,39.30
2019-05-21T11:00:30.448Z,38.16
2019-05-21T11:03:25.412Z,36.71
2019-05-21T11:06:09.498Z,37.98
2019-05-21T11:08:31.369Z,39.34
2019-05-21T11:11:03.416Z,42.08
2019-05-21T11:13:35.465Z,41.84
2019-05-21T11:16:08.585Z,39.05
2019-05-21T11:18:41.465Z,36.35
2019-05-21T11:21:13.384Z,36.42
2019-05-21T11:23:45.514Z,36.64
2019-05-21T11:26:17.556Z,36.66
2019-05-21T11:28:49.483Z,37.36
2019-05-21T11:31:20.752Z,36.26
2019-05-21T11:33:52.670Z,35.98
2019-05-21T11:36:24.550Z,36.24
2019-05-21T11:38:56.503Z,37.83
2019-05-21T11:41:28.562Z,39.98
2019-05-21T11:44:00.491Z,38.70
2019-05-21T11:46:32.422Z,38.72
2019-05-21T11:49:04.298Z,39.98
2019-05-21T11:51:36.341Z,42.93
2019-05-21T11:54:08.259Z,43.60
2019-05-21T11:56:40.174Z,46.42
2019-05-21T11:59:11.437Z,47.41
2019-05-21T12:01:43.415Z,48.90
2019-05-21T12:04:15.494Z,47.68
2019-05-21T12:06:47.464Z,48.49
2019-05-21T12:09:19.703Z,46.46
2019-05-21T12:11:51.595Z,46.21
2019-05-21T12:14:23.417Z,47.37
2019-05-21T12:16:55.270Z,48.04
2019-05-21T12:19:27.156Z,48.02
2019-05-21T12:21:58.989Z,48.38
2019-05-21T12:24:30.896Z,49.34
2019-05-21T12:27:02.807Z,49.24
2019-05-21T12:29:34.786Z,48.73
2019-05-21T12:32:06.920Z,48.79
2019-05-21T12:37:59.746Z,49.03
2019-05-21T12:40:31.532Z,47.28
2019-05-21T12:43:03.530Z,47.10
2019-05-21T12:45:35.374Z,47.53
2019-05-21T12:48:08.892Z,47.09
2019-05-21T12:50:42.617Z,46.83
2019-05-21T12:53:16.566Z,45.66
2019-05-21T12:55:47.352Z,45.70
2019-05-21T12:58:20.938Z,43.99
2019-05-21T13:00:54.230Z,45.07
2019-05-21T13:03:25.293Z,45.23
2019-05-21T13:05:57.073Z,44.05
2019-05-21T13:08:28.971Z,43.69
2019-05-21T13:11:00.876Z,43.86
2019-05-21T13:13:32.904Z,44.02
2019-05-21T13:16:05.035Z,43.29
2019-05-21T13:18:36.933Z,41.87
2019-05-21T13:21:08.645Z,41.38
2019-05-21T13:23:40.573Z,40.75
2019-05-21T13:26:12.473Z,40.42
2019-05-21T13:28:44.414Z,40.78
2019-05-21T13:31:17.365Z,41.64
2019-05-21T13:33:49.214Z,41.70
2019-05-21T13:36:20.517Z,40.50
2019-05-21T13:38:52.369Z,39.87
2019-05-21T13:41:23.792Z,39.88
2019-05-21T13:43:58.544Z,39.81
2019-05-21T13:46:30.843Z,39.97
2019-05-21T13:49:02.860Z,39.09
2019-05-21T13:51:40.906Z,39.17
2019-05-21T13:54:12.848Z,38.95
2019-05-21T13:56:46.832Z,39.88
2019-05-21T13:59:21.575Z,39.42
2019-05-21T14:01:53.816Z,39.57
2019-05-21T14:04:25.065Z,38.81
2019-05-21T14:06:57.034Z,38.70
2019-05-21T14:09:28.979Z,38.01
2019-05-21T14:12:00.697Z,36.31
2019-05-21T14:14:32.596Z,37.05
2019-05-21T14:17:04.629Z,37.53
2019-05-21T14:19:35.867Z,37.64
2019-05-21T14:22:07.129Z,38.39
2019-05-21T14:24:38.905Z,38.04
2019-05-21T14:27:12.745Z,36.85
2019-05-21T14:29:44.677Z,38.16
2019-05-21T14:32:17.092Z,38.67
2019-05-21T14:35:00.733Z,39.43
2019-05-21T14:37:23.340Z,40.03
2019-05-21T14:39:55.758Z,40.79
2019-05-21T14:42:27.161Z,41.12
2019-05-21T14:45:01.239Z,40.50
2019-05-21T14:47:33.861Z,39.39
2019-05-21T14:50:06.477Z,39.17
2019-05-21T14:52:37.870Z,38.69
2019-05-21T14:55:10.958Z,37.83
2019-05-21T14:57:42.901Z,39.26
2019-05-21T15:00:26.609Z,39.59
2019-05-21T15:02:57.909Z,40.26
2019-05-21T15:05:29.055Z,40.14
2019-05-21T15:08:01.044Z,40.64
2019-05-21T15:10:47.351Z,41.30
2019-05-21T15:13:06.858Z,41.77
2019-05-21T15:15:40.385Z,41.47
2019-05-21T15:18:20.639Z,40.39
2019-05-21T15:21:12.550Z,40.31
2019-05-21T15:23:45.508Z,41.56
2019-05-21T15:26:18.195Z,41.89
2019-05-21T15:28:50.760Z,42.08
2019-05-21T15:31:22.905Z,41.77
2019-05-21T15:33:55.007Z,40.42
2019-05-21T15:36:26.191Z,38.67
2019-05-21T15:38:58.090Z,38.65
2019-05-21T15:41:30.188Z,39.59
2019-05-21T15:44:02.123Z,39.03
2019-05-21T15:46:47.805Z,39.92
2019-05-21T15:49:07.800Z,39.35
2019-05-21T15:51:39.803Z,38.92
2019-05-21T15:54:11.670Z,38.81
2019-05-21T15:56:43.544Z,39.39
2019-05-21T15:59:15.582Z,39.11
2019-05-21T16:01:48.569Z,39.51
2019-05-21T16:04:21.438Z,40.01
2019-05-21T16:06:53.475Z,39.23
2019-05-21T16:09:25.348Z,39.03
2019-05-21T16:11:57.183Z,38.08
2019-05-21T16:14:29.053Z,37.49
2019-05-21T16:17:00.929Z,37.90
2019-05-21T16:19:32.827Z,37.25
2019-05-21T16:22:04.889Z,36.75
2019-05-21T16:24:36.041Z,37.01
2019-05-21T16:27:08.065Z,36.96
2019-05-21T16:29:40.100Z,36.79
2019-05-21T16:32:12.980Z,36.52
2019-05-21T16:34:45.920Z,36.66
2019-05-21T16:37:18.817Z,36.38
2019-05-21T16:39:50.732Z,36.33
2019-05-21T16:42:23.023Z,37.02
2019-05-21T16:44:54.372Z,36.75
2019-05-21T16:47:42.424Z,35.98
2019-05-21T16:50:00.036Z,36.63
2019-05-21T16:52:39.005Z,35.83
2019-05-21T16:55:37.944Z,35.17
2019-05-21T16:58:16.086Z,35.07
2019-05-21T17:01:09.262Z,35.45
2019-05-21T17:03:41.068Z,35.76
2019-05-21T17:06:23.688Z,35.96
2019-05-21T17:08:56.088Z,36.81
2019-05-21T17:11:30.664Z,36.60
2019-05-21T17:14:04.623Z,37.14
2019-05-21T17:17:21.345Z,38.20
2019-05-21T17:19:23.616Z,38.81
2019-05-21T17:21:55.787Z,39.64
2019-05-21T17:24:27.181Z,40.80
2019-05-21T17:26:59.309Z,42.36
2019-05-21T17:29:33.926Z,42.39
2019-05-21T17:32:06.692Z,43.01
2019-05-21T17:34:42.095Z,43.43
2019-05-21T17:37:32.977Z,42.79
2019-05-21T17:40:06.233Z,42.67
2019-05-21T17:42:42.281Z,44.23
2019-05-21T17:45:17.869Z,45.32
2019-05-21T17:47:49.269Z,46.00
2019-05-21T17:50:21.604Z,46.32
2019-05-21T17:52:55.991Z,46.60
2019-05-21T17:55:27.889Z,47.55
2019-05-21T17:58:00.481Z,48.03
2019-05-21T18:00:53.510Z,48.32
2019-05-21T18:03:25.713Z,48.37
2019-05-21T18:05:58.433Z,48.86
2019-05-21T18:08:31.931Z,49.50
2019-05-21T18:11:04.999Z,50.02
2019-05-21T18:13:37.216Z,51.16
2019-05-21T18:16:10.096Z,53.26
2019-05-21T18:18:42.641Z,55.46
2019-05-21T18:21:16.619Z,56.53
2019-05-21T18:23:49.082Z,57.62
2019-05-21T18:26:20.654Z,58.35
2019-05-21T18:28:51.938Z,59.73
2019-05-21T18:31:24.745Z,60.69
2019-05-21T18:33:56.082Z,61.73
2019-05-21T18:36:28.488Z,62.56
2019-05-21T18:38:59.815Z,63.50
2019-05-21T18:41:32.764Z,64.05
2019-05-21T18:44:05.039Z,64.13
2019-05-21T18:46:37.064Z,64.86
2019-05-21T18:49:09.191Z,65.95
2019-05-21T18:51:41.240Z,66.07
2019-05-21T18:54:13.264Z,67.14
2019-05-21T18:56:45.349Z,67.22
2019-05-21T18:59:16.655Z,67.54
2019-05-21T19:01:48.532Z,67.62
2019-05-21T19:04:20.410Z,67.30
2019-05-21T19:06:52.467Z,67.78
2019-05-21T19:09:24.511Z,68.36
2019-05-21T19:11:56.799Z,68.46
2019-05-21T19:14:28.378Z,68.23
2019-05-21T19:16:59.589Z,68.06
2019-05-21T19:19:31.482Z,67.70
2019-05-21T19:22:02.754Z,68.23
2019-05-21T19:24:34.791Z,68.26
2019-05-21T19:27:06.910Z,68.61
2019-05-21T19:29:39.371Z,68.62
2019-05-21T19:32:10.679Z,68.64
2019-05-21T19:34:42.045Z,69.15
2019-05-21T19:37:14.870Z,69.01
2019-05-21T19:39:46.946Z,68.93
2019-05-21T19:42:18.970Z,69.00
2019-05-21T19:44:50.916Z,68.87
2019-05-21T19:47:41.834Z,68.69
2019-05-21T19:50:35.059Z,68.79
2019-05-21T19:53:17.632Z,69.19
2019-05-21T19:56:26.140Z,69.05
2019-05-21T19:58:59.159Z,69.31
2019-05-21T20:01:30.624Z,69.48
2019-05-21T20:04:53.514Z,70.60
2019-05-21T20:08:48.059Z,70.02
2019-05-21T20:11:22.018Z,70.40
2019-05-21T20:13:54.178Z,70.09
2019-05-21T20:16:26.616Z,71.26
2019-05-21T20:22:54.755Z,71.00
2019-05-21T20:25:31.313Z,72.13
2019-05-21T20:28:05.529Z,71.52
2019-05-21T20:30:44.304Z,72.04
2019-05-21T20:33:18.002Z,72.14
2019-05-21T20:36:08.673Z,72.06
2019-05-21T20:38:42.919Z,72.37
2019-05-21T20:41:18.567Z,72.75
2019-05-21T20:43:59.163Z,72.71
2019-05-21T20:46:25.983Z,72.11
2019-05-21T20:48:59.086Z,72.13
2019-05-21T20:51:34.056Z,72.33
2019-05-21T20:54:08.235Z,71.95
2019-05-21T20:56:41.885Z,71.92
2019-05-21T20:59:29.583Z,72.38
2019-05-21T21:02:08.825Z,72.41
2019-05-21T21:04:46.226Z,72.49
2019-05-21T21:07:24.548Z,73.00
2019-05-21T21:09:58.673Z,73.50
2019-05-21T21:12:31.368Z,73.96
2019-05-21T21:15:06.578Z,74.25
2019-05-21T21:17:40.970Z,74.75
2019-05-21T21:20:12.682Z,75.16
2019-05-21T21:22:45.806Z,75.26
2019-05-21T21:25:24.387Z,75.11
2019-05-21T21:27:57.003Z,75.50
2019-05-21T21:30:29.399Z,75.81
2019-05-21T21:33:01.802Z,75.69
2019-05-21T21:35:34.762Z,75.82
2019-05-21T21:38:08.571Z,76.03
2019-05-21T21:40:40.802Z,76.18
2019-05-21T21:43:12.551Z,76.03
2019-05-21T21:45:44.497Z,76.05
2019-05-21T21:48:16.983Z,75.92
2019-05-21T21:50:50.424Z,75.92
2019-05-21T21:53:23.528Z,76.37
2019-05-21T21:55:55.427Z,76.59
2019-05-21T21:58:27.466Z,76.61
2019-05-21T22:01:49.283Z,76.87
2019-05-21T22:04:28.247Z,77.14
2019-05-21T22:07:05.410Z,77.22
2019-05-21T22:09:38.724Z,77.27
2019-05-21T22:12:12.934Z,77.31
2019-05-21T22:14:51.643Z,76.65
2019-05-21T22:17:18.313Z,76.68
2019-05-21T22:19:51.311Z,76.69
2019-05-21T22:22:23.709Z,76.43
2019-05-21T22:24:55.904Z,75.99
2019-05-21T22:27:27.759Z,75.55
2019-05-21T22:29:59.059Z,75.76
2019-05-21T22:32:31.097Z,75.89
2019-05-21T22:35:02.971Z,76.03
2019-05-21T22:37:35.212Z,76.23
2019-05-21T22:40:07.173Z,76.03
2019-05-21T22:42:39.207Z,76.41
2019-05-21T22:45:11.834Z,76.77
2019-05-21T22:47:43.925Z,76.92
2019-05-21T22:50:15.975Z,76.57
2019-05-21T22:52:47.765Z,76.68
2019-05-21T22:55:19.655Z,77.41
2019-05-21T22:57:51.491Z,77.30
2019-05-21T23:00:23.746Z,76.99
2019-05-21T23:02:56.310Z,77.42
2019-05-21T23:05:28.331Z,77.18
2019-05-21T23:08:00.489Z,77.21
2019-05-21T23:10:32.315Z,78.01
2019-05-21T23:13:04.198Z,77.85
2019-05-21T23:15:36.294Z,77.55
2019-05-21T23:18:13.020Z,77.68
2019-05-21T23:20:53.241Z,78.04
2019-05-21T23:23:27.069Z,78.24
2019-05-21T23:25:59.753Z,78.65
2019-05-21T23:28:32.518Z,78.82
2019-05-21T23:31:06.254Z,79.26
2019-05-21T23:33:38.733Z,79.56
2019-05-21T23:36:10.428Z,79.70
2019-05-21T23:38:41.892Z,80.34
2019-05-21T23:41:13.890Z,80.38
2019-05-21T23:43:45.265Z,80.53
2019-05-21T23:46:17.462Z,80.80
2019-05-21T23:48:49.581Z,81.23
2019-05-21T23:51:21.922Z,81.54
2019-05-21T23:53:54.125Z,81.75
2019-05-21T23:56:26.045Z,81.58
2019-05-21T23:58:57.539Z,81.62
